createdAt,value
2018-12-05T00:03:07.890Z,11.97
2018-12-05T00:08:10.338Z,11.75
2018-12-05T00:13:12.742Z,12.20
2018-12-05T00:18:15.158Z,12.23
2018-12-05T00:23:17.585Z,11.88
2018-12-05T00:28:20.983Z,11.90
2018-12-05T00:33:23.389Z,12.10
2018-12-05T00:38:25.779Z,11.78
2018-12-05T00:43:28.186Z,11.40
2018-12-05T00:48:30.555Z,11.18
2018-12-05T00:53:33.215Z,9.95
2018-12-05T00:58:35.626Z,11.18
2018-12-05T01:03:38.174Z,10.25
2018-12-05T01:08:40.531Z,9.35
2018-12-05T01:13:44.073Z,10.13
2018-12-05T01:18:46.527Z,11.20
2018-12-05T01:23:49.211Z,10.08
2018-12-05T01:28:51.723Z,9.80
2018-12-05T01:33:54.218Z,9.25
2018-12-05T01:38:57.302Z,9.48
2018-12-05T01:43:59.774Z,10.03
2018-12-05T01:49:02.489Z,9.28
2018-12-05T01:54:05.153Z,9.28
2018-12-05T01:59:07.574Z,8.55
2018-12-05T02:04:09.967Z,9.33
2018-12-05T02:09:12.465Z,8.35
2018-12-05T02:14:15.012Z,8.25
2018-12-05T02:19:17.454Z,8.93
2018-12-05T02:24:19.943Z,8.80
2018-12-05T02:29:24.403Z,10.25
2018-12-05T02:34:26.952Z,9.63
2018-12-05T02:39:29.329Z,9.30
2018-12-05T02:44:31.935Z,9.60
2018-12-05T02:49:34.426Z,9.25
2018-12-05T02:54:36.834Z,9.80
2018-12-05T02:59:39.234Z,9.73
2018-12-05T03:04:42.001Z,10.03
2018-12-05T03:09:44.443Z,9.58
2018-12-05T03:14:46.855Z,9.23
2018-12-05T03:19:49.401Z,7.97
2018-12-05T03:24:52.334Z,7.95
2018-12-05T03:29:55.030Z,8.80
2018-12-05T03:34:57.462Z,8.75
2018-12-05T03:40:00.077Z,8.03
2018-12-05T03:45:02.577Z,8.05
2018-12-05T03:50:05.438Z,7.62
2018-12-05T03:55:08.250Z,7.83
2018-12-05T04:00:10.795Z,8.00
2018-12-05T04:05:13.255Z,8.20
2018-12-05T04:10:15.926Z,7.30
2018-12-05T04:15:18.399Z,7.87
2018-12-05T04:20:20.876Z,7.78
2018-12-05T04:25:23.271Z,8.35
2018-12-05T04:30:25.899Z,8.53
2018-12-05T04:35:28.571Z,7.85
2018-12-05T04:40:31.034Z,7.90
2018-12-05T04:45:34.364Z,8.25
2018-12-05T04:50:36.734Z,8.63
2018-12-05T04:55:39.167Z,8.10
2018-12-05T05:00:41.695Z,7.65
2018-12-05T05:05:44.108Z,6.92
2018-12-05T05:10:47.113Z,7.58
2018-12-05T05:15:49.623Z,6.92
2018-12-05T05:20:52.018Z,7.15
2018-12-05T05:25:54.407Z,7.33
2018-12-05T05:31:03.963Z,7.90
2018-12-05T05:36:06.422Z,7.65
2018-12-05T05:41:08.816Z,8.15
2018-12-05T05:46:11.198Z,7.47
2018-12-05T05:51:13.596Z,7.60
2018-12-05T05:56:15.937Z,7.92
2018-12-05T06:01:25.593Z,7.67
2018-12-05T06:06:27.990Z,7.75
2018-12-05T06:11:30.352Z,8.18
2018-12-05T06:16:32.689Z,8.45
2018-12-05T06:21:35.486Z,8.53
2018-12-05T06:26:37.842Z,8.28
2018-12-05T06:31:40.236Z,7.83
2018-12-05T06:36:42.920Z,8.18
2018-12-05T06:41:45.447Z,6.83
2018-12-05T06:46:47.883Z,7.30
2018-12-05T06:51:50.699Z,7.20
2018-12-05T06:56:53.482Z,7.22
2018-12-05T07:01:55.817Z,7.80
2018-12-05T07:06:58.294Z,7.62
2018-12-05T07:12:00.759Z,7.72
2018-12-05T07:17:03.195Z,7.03
2018-12-05T07:22:05.613Z,7.92
2018-12-05T07:27:07.999Z,7.17
2018-12-05T07:32:10.387Z,7.70
2018-12-05T07:37:12.806Z,6.20
2018-12-05T07:42:15.173Z,6.50
2018-12-05T07:47:17.620Z,6.85
2018-12-05T07:52:19.971Z,6.45
2018-12-05T07:57:22.311Z,6.12
2018-12-05T08:02:24.881Z,6.42
2018-12-05T08:07:27.280Z,6.35
2018-12-05T08:12:29.745Z,7.30
2018-12-05T08:17:32.435Z,6.62
2018-12-05T08:22:34.833Z,7.17
2018-12-05T08:27:37.451Z,7.20
2018-12-05T08:32:40.111Z,6.92
2018-12-05T08:37:42.466Z,7.05
2018-12-05T08:42:44.897Z,7.90
2018-12-05T08:47:47.419Z,7.85
2018-12-05T08:52:50.088Z,8.48
2018-12-05T08:57:52.546Z,8.40
2018-12-05T09:02:55.113Z,7.37
2018-12-05T09:07:57.657Z,8.35
2018-12-05T09:13:00.424Z,8.63
2018-12-05T09:18:02.818Z,8.90
2018-12-05T09:23:05.198Z,9.95
2018-12-05T09:28:07.692Z,9.03
2018-12-05T09:33:10.102Z,9.90
2018-12-05T09:38:12.406Z,10.15
2018-12-05T09:43:14.914Z,9.80
2018-12-05T09:48:17.280Z,9.10
2018-12-05T09:53:19.777Z,10.15
2018-12-05T09:58:22.170Z,10.63
2018-12-05T10:03:24.619Z,10.65
2018-12-05T10:08:27.396Z,10.60
2018-12-05T10:13:29.775Z,10.63
2018-12-05T10:18:32.749Z,10.80
2018-12-05T10:23:35.216Z,10.28
2018-12-05T10:28:37.679Z,10.93
2018-12-05T10:33:40.127Z,10.45
2018-12-05T10:38:42.615Z,10.28
2018-12-05T10:43:45.057Z,10.45
2018-12-05T10:48:47.731Z,10.40
2018-12-05T10:53:50.298Z,11.33
2018-12-05T10:58:52.779Z,11.93
2018-12-05T11:03:55.257Z,11.18
2018-12-05T11:09:03.219Z,11.43
2018-12-05T11:14:11.831Z,10.70
2018-12-05T11:19:19.926Z,10.35
2018-12-05T11:24:28.137Z,10.68
2018-12-05T11:29:30.795Z,10.85
2018-12-05T11:34:33.833Z,13.15
2018-12-05T11:39:36.683Z,11.65
2018-12-05T11:44:39.082Z,10.65
2018-12-05T11:49:41.787Z,10.85
2018-12-05T11:54:44.230Z,10.75
2018-12-05T11:59:46.737Z,11.78
2018-12-05T12:04:50.101Z,10.68
2018-12-05T12:09:52.668Z,11.50
2018-12-05T12:14:55.132Z,11.33
2018-12-05T12:19:57.463Z,11.63
2018-12-05T12:24:59.896Z,11.05
2018-12-05T12:30:02.827Z,10.30
2018-12-05T12:35:06.474Z,10.68
2018-12-05T12:40:08.939Z,9.80
2018-12-05T12:45:11.429Z,11.03
2018-12-05T12:50:13.884Z,10.63
2018-12-05T12:55:16.239Z,10.78
2018-12-05T13:00:18.697Z,10.68
2018-12-05T13:05:21.473Z,10.50
2018-12-05T13:10:24.350Z,11.57
2018-12-05T13:15:26.671Z,10.43
2018-12-05T13:20:29.206Z,10.75
2018-12-05T13:25:31.724Z,10.85
2018-12-05T13:30:34.490Z,10.88
2018-12-05T13:35:37.555Z,11.65
2018-12-05T13:40:40.642Z,10.82
2018-12-05T13:45:43.096Z,10.45
2018-12-05T13:50:46.894Z,10.90
2018-12-05T13:55:49.359Z,10.60
2018-12-05T14:00:52.027Z,10.80
2018-12-05T14:05:54.399Z,11.78
2018-12-05T14:10:57.070Z,10.85
2018-12-05T14:21:08.548Z,13.03
2018-12-05T14:26:11.231Z,11.83
2018-12-05T14:31:13.717Z,11.45
2018-12-05T14:36:16.198Z,10.90
2018-12-05T14:41:18.566Z,11.97
2018-12-05T14:46:21.026Z,12.53
2018-12-05T14:51:23.472Z,12.18
2018-12-05T14:56:25.927Z,12.63
2018-12-05T15:01:28.374Z,13.43
2018-12-05T15:06:30.798Z,12.35
2018-12-05T15:11:33.174Z,11.93
2018-12-05T15:16:36.155Z,13.03
2018-12-05T15:21:38.817Z,13.18
2018-12-05T15:26:41.424Z,13.22
2018-12-05T15:31:43.884Z,13.70
2018-12-05T15:36:46.505Z,13.70
2018-12-05T15:41:49.742Z,13.35
2018-12-05T15:46:52.424Z,13.28
2018-12-05T15:51:54.831Z,12.55
2018-12-05T15:56:57.490Z,12.58
2018-12-05T16:02:00.933Z,13.60
2018-12-05T16:07:03.547Z,12.68
2018-12-05T16:12:06.068Z,12.82
2018-12-05T16:17:08.723Z,13.48
2018-12-05T16:22:11.231Z,14.47
2018-12-05T16:27:14.219Z,15.72
2018-12-05T16:32:16.608Z,14.60
2018-12-05T16:37:18.982Z,14.13
2018-12-05T16:42:21.345Z,12.95
2018-12-05T16:47:23.695Z,13.90
2018-12-05T16:52:26.072Z,15.43
2018-12-05T16:57:29.850Z,14.45
2018-12-05T17:02:32.471Z,14.33
2018-12-05T17:07:34.849Z,13.98
2018-12-05T17:12:37.273Z,13.78
2018-12-05T17:17:39.720Z,14.58
2018-12-05T17:22:42.054Z,14.53
2018-12-05T17:27:44.537Z,14.50
2018-12-05T17:32:47.010Z,15.50
2018-12-05T17:37:49.689Z,14.90
2018-12-05T17:42:52.033Z,14.60
2018-12-05T17:47:54.411Z,15.60
2018-12-05T17:52:56.862Z,16.12
2018-12-05T17:57:59.866Z,14.85
2018-12-05T18:03:02.378Z,14.43
2018-12-05T18:08:04.845Z,14.68
2018-12-05T18:13:07.267Z,14.73
2018-12-05T18:18:09.676Z,13.70
2018-12-05T18:23:12.122Z,14.93
2018-12-05T18:28:14.508Z,15.03
2018-12-05T18:33:16.826Z,14.60
2018-12-05T18:38:19.670Z,15.15
2018-12-05T18:43:22.153Z,17.70
2018-12-05T18:48:24.534Z,16.48
2018-12-05T18:53:26.907Z,15.58
2018-12-05T18:58:29.367Z,13.83
2018-12-05T19:03:31.810Z,14.73
2018-12-05T19:08:34.685Z,14.65
2018-12-05T19:13:41.806Z,13.55
2018-12-05T19:18:44.321Z,14.80
2018-12-05T19:23:47.229Z,15.28
2018-12-05T19:28:50.325Z,14.98
2018-12-05T19:33:53.034Z,14.68
2018-12-05T19:38:55.566Z,15.40
2018-12-05T19:43:58.387Z,16.52
2018-12-05T19:49:00.707Z,14.23
2018-12-05T19:54:03.169Z,13.98
2018-12-05T19:59:05.553Z,13.72
2018-12-05T20:04:08.575Z,15.23
2018-12-05T20:09:11.062Z,14.87
2018-12-05T20:14:19.418Z,15.10
2018-12-05T20:19:21.772Z,15.55
2018-12-05T20:24:24.266Z,14.63
2018-12-05T20:29:26.661Z,14.85
2018-12-05T20:34:29.354Z,15.93
2018-12-05T20:39:31.767Z,15.00
2018-12-05T20:44:35.632Z,14.95
2018-12-05T20:49:38.164Z,14.78
2018-12-05T20:54:40.734Z,14.70
2018-12-05T20:59:43.691Z,17.12
2018-12-05T21:04:46.185Z,15.65
2018-12-05T21:09:48.587Z,14.60
2018-12-05T21:14:51.326Z,14.50
2018-12-05T21:19:53.743Z,14.55
2018-12-05T21:24:56.188Z,14.95
2018-12-05T21:29:58.599Z,13.53
2018-12-05T21:35:01.023Z,15.70
2018-12-05T21:40:04.039Z,14.43
2018-12-05T21:45:06.755Z,13.55
2018-12-05T21:50:09.523Z,14.35
2018-12-05T21:55:12.050Z,13.62
2018-12-05T22:00:14.761Z,14.38
2018-12-05T22:05:17.183Z,13.60
2018-12-05T22:10:19.567Z,17.82
2018-12-05T22:15:22.106Z,15.63
2018-12-05T22:20:24.695Z,14.50
2018-12-05T22:25:27.083Z,15.00
2018-12-05T22:30:29.471Z,14.10
2018-12-05T22:35:31.915Z,14.00
2018-12-05T22:40:34.336Z,14.35
2018-12-05T22:45:36.814Z,15.03
2018-12-05T22:50:39.352Z,13.80
2018-12-05T22:55:41.767Z,13.45
2018-12-05T23:00:49.642Z,14.90
2018-12-05T23:05:52.211Z,14.40
2018-12-05T23:10:54.722Z,14.43
2018-12-05T23:16:29.738Z,15.00
2018-12-05T23:21:32.262Z,13.90
2018-12-05T23:26:34.667Z,14.18
2018-12-05T23:31:37.161Z,13.03
2018-12-05T23:36:39.655Z,13.75
2018-12-05T23:41:42.183Z,15.08
2018-12-05T23:46:44.866Z,12.65
2018-12-05T23:51:47.490Z,14.15
2018-12-05T23:56:50.247Z,13.08
